Time;durP1;ratioP1;P1;durP2;ratioP2;P2;SDS_P1;SDS_P2;PMS_P1;PMS_P2;Temp;Humidity;BMP_temperature;BMP_pressure;BME280_temperature;BME280_humidity;BME280_pressure;Samples;Min_cycle;Max_cycle;Signal;HPM_P1;HPM_P2
2020/12/18 00:01:24;;;;;;;18.27;9.85;;;10.10;99.90;;;10.23;81.06;101887.78;5073337;28;20051;-78
2020/12/18 00:03:52;;;;;;;13.88;8.32;;;10.10;99.90;;;10.31;81.43;101907.28;5073013;28;20067;-77
2020/12/18 00:06:21;;;;;;;14.93;8.60;;;10.10;99.90;;;10.22;81.31;101891.25;5073007;28;20551;-78
2020/12/18 00:08:50;;;;;;;18.17;9.88;;;10.10;99.90;;;10.27;81.31;101900.16;5073175;28;20527;-76
2020/12/18 00:11:21;;;;;;;13.82;9.35;;;10.10;99.90;;;10.30;81.14;101896.69;5073226;28;20044;-77
2020/12/18 00:13:49;;;;;;;16.85;10.30;;;10.10;99.90;;;10.11;81.37;101874.38;5073113;28;20408;-78
2020/12/18 00:16:18;;;;;;;18.73;9.52;;;10.10;99.90;;;10.15;81.54;101884.13;5073094;28;20043;-78
2020/12/18 00:18:45;;;;;;;19.25;11.10;;;10.10;99.90;;;10.24;81.35;101886.03;5073105;28;20068;-76
2020/12/18 00:21:17;;;;;;;16.23;9.77;;;10.10;99.90;;;9.58;81.44;101812.81;5072653;28;20040;-77
2020/12/18 00:23:46;;;;;;;14.60;9.98;;;10.10;99.90;;;10.08;81.30;101858.47;5073010;28;20052;-78
2020/12/18 00:26:13;;;;;;;22.90;11.55;;;10.10;99.90;;;10.18;81.79;101896.50;5072917;28;20052;-77
2020/12/18 00:28:41;;;;;;;14.45;9.85;;;10.10;99.90;;;9.88;81.90;101838.78;5072810;28;20041;-77
2020/12/18 00:31:08;;;;;;;15.77;10.07;;;10.00;99.90;;;10.01;81.75;101877.72;5072719;28;20460;-77
2020/12/18 00:33:36;;;;;;;18.25;10.23;;;10.00;99.90;;;9.96;82.09;101875.03;5072657;28;20512;-78
2020/12/18 00:36:04;;;;;;;17.90;10.40;;;10.00;99.90;;;9.89;82.95;101899.56;5073154;28;20040;-78
2020/12/18 00:38:32;;;;;;;16.77;10.65;;;9.90;99.90;;;9.97;82.75;101897.03;5072448;28;20516;-77
2020/12/18 00:41:00;;;;;;;20.40;11.65;;;9.90;99.90;;;9.95;83.02;101893.47;5072678;28;20420;-77
2020/12/18 00:43:27;;;;;;;21.63;10.60;;;9.80;99.90;;;9.87;83.10;101898.66;5071401;28;20063;-78
2020/12/18 00:45:55;;;;;;;24.10;12.55;;;9.80;99.90;;;9.94;83.11;101891.72;5071319;28;20033;-78
2020/12/18 00:48:22;;;;;;;24.10;11.85;;;9.70;99.90;;;9.74;83.11;101890.53;5072240;28;20051;-77
2020/12/18 00:51:02;;;;;;;23.63;11.80;;;9.70;99.90;;;9.30;83.64;101842.31;5072618;28;20063;-76
2020/12/18 00:53:30;;;;;;;27.80;12.73;;;9.60;99.90;;;9.59;84.33;101883.28;5071118;28;20048;-77
2020/12/18 00:55:58;;;;;;;23.42;12.13;;;9.60;99.90;;;9.55;84.42;101877.91;5070589;28;20142;-76
2020/12/18 00:58:26;;;;;;;21.73;12.50;;;9.50;99.90;;;9.32;84.65;101856.41;5071123;28;20067;-77
2020/12/18 01:00:54;;;;;;;22.23;12.23;;;9.50;99.90;;;9.23;85.08;101837.81;5071029;28;20041;-77
2020/12/18 01:03:23;;;;;;;21.80;12.60;;;9.40;99.90;;;9.53;85.04;101867.31;5071011;28;20045;-77
2020/12/18 01:05:51;;;;;;;22.77;12.13;;;9.40;99.90;;;9.40;85.04;101877.66;5072333;28;20127;-78
2020/12/18 01:08:20;;;;;;;22.33;13.25;;;9.40;99.90;;;9.32;85.30;101860.81;5071169;28;20040;-77
2020/12/18 01:10:47;;;;;;;24.67;13.07;;;9.30;99.90;;;9.33;85.45;101874.03;5070835;28;20048;-77
2020/12/18 01:13:15;;;;;;;26.48;13.60;;;9.30;99.90;;;9.37;86.00;101867.94;5070836;28;20406;-77
2020/12/18 01:15:45;;;;;;;20.55;12.82;;;9.30;99.90;;;9.32;85.59;101869.63;5070933;28;20075;-77
2020/12/18 01:18:25;;;;;;;;;;;9.30;99.90;;;9.25;86.16;101872.13;5071397;28;20041;-76
2020/12/18 01:20:53;;;;;;;23.20;13.00;;;9.30;99.90;;;9.27;86.52;101857.22;5070833;28;19920;-78
2020/12/18 01:23:21;;;;;;;25.65;13.45;;;9.20;99.90;;;9.37;85.89;101870.56;5070788;28;20490;-76
2020/12/18 01:25:55;;;;;;;27.45;13.95;;;9.30;99.90;;;9.36;86.49;101871.44;5070473;28;20159;-77
2020/12/18 01:28:23;;;;;;;23.90;13.63;;;9.30;99.90;;;9.21;86.19;101844.81;5070789;28;20087;-78
2020/12/18 01:30:51;;;;;;;24.10;13.88;;;9.30;99.90;;;9.15;86.42;101831.50;5070655;28;20052;-77
2020/12/18 01:33:18;;;;;;;23.00;13.88;;;9.30;99.90;;;9.42;86.01;101862.72;5071916;28;20055;-77
2020/12/18 01:35:46;;;;;;;22.67;12.88;;;9.40;99.90;;;9.47;86.11;101861.03;5070627;28;20040;-77
2020/12/18 01:38:13;;;;;;;25.33;13.90;;;9.40;99.90;;;9.67;85.03;101880.75;5070684;28;20128;-77
2020/12/18 01:40:43;;;;;;;23.75;13.90;;;9.50;99.90;;;9.47;85.81;101872.50;5070272;28;20056;-77
2020/12/18 01:43:13;;;;;;;22.98;13.43;;;9.40;99.90;;;9.49;85.61;101876.06;5070900;28;20048;-77
2020/12/18 01:45:44;;;;;;;23.55;13.68;;;9.40;99.90;;;9.55;85.81;101875.25;5070913;28;20044;-76
2020/12/18 01:48:15;;;;;;;29.77;13.63;;;9.40;99.90;;;9.46;86.04;101878.66;5070597;28;20056;-76
2020/12/18 01:50:51;;;;;;;26.30;13.68;;;9.40;99.90;;;9.51;85.86;101876.97;5070603;28;20094;-77
2020/12/18 01:53:25;;;;;;;26.80;12.98;;;9.40;99.90;;;9.27;85.83;101836.09;5070606;28;20048;-77
2020/12/18 01:56:09;;;;;;;27.15;14.30;;;9.50;99.90;;;9.45;85.91;101875.97;5070589;28;20055;-77
2020/12/18 01:58:41;;;;;;;23.55;13.38;;;9.40;99.90;;;9.55;85.57;101881.44;5071878;28;20115;-77
2020/12/18 02:01:15;;;;;;;23.17;14.07;;;9.40;99.90;;;9.35;86.31;101867.00;5070522;28;20080;-77
2020/12/18 02:03:57;;;;;;;28.85;15.02;;;9.40;99.90;;;8.70;86.73;101754.19;5070642;28;20041;-77
2020/12/18 02:06:38;;;;;;;25.48;14.90;;;9.40;99.90;;;9.40;87.01;101881.19;5070575;28;20057;-77
2020/12/18 02:09:15;;;;;;;28.88;15.48;;;9.30;99.90;;;9.34;87.09;101883.75;5075075;28;20652;-77
2020/12/18 02:11:47;;;;;;;24.83;13.82;;;9.30;99.90;;;9.32;86.89;101874.00;5074083;28;20049;-77
2020/12/18 02:14:18;;;;;;;27.67;14.65;;;9.30;99.90;;;9.22;87.03;101838.66;5074154;28;20051;-76
2020/12/18 02:16:51;;;;;;;28.60;15.10;;;9.30;99.90;;;9.44;86.64;101871.56;5074201;28;20048;-77
2020/12/18 02:19:29;;;;;;;25.80;15.50;;;9.30;99.90;;;9.33;86.99;101866.09;5074065;28;20040;-77
2020/12/18 02:22:14;;;;;;;40.33;16.08;;;9.30;99.90;;;9.08;87.53;101829.59;5075120;28;20072;-78
2020/12/18 02:24:52;;;;;;;32.55;16.58;;;9.20;99.90;;;9.35;87.67;101856.44;5073848;28;20138;-77
2020/12/18 02:27:20;;;;;;;31.75;15.48;;;9.30;99.90;;;9.36;87.38;101860.88;5073722;28;20101;-77
2020/12/18 02:29:56;;;;;;;29.23;15.20;;;9.30;99.90;;;9.30;87.67;101857.25;5075191;28;20094;-77
2020/12/18 02:32:23;;;;;;;29.25;15.20;;;9.30;99.90;;;9.20;87.97;101856.22;5074974;28;20132;-77
2020/12/18 02:35:02;;;;;;;34.28;15.40;;;9.10;99.90;;;9.35;87.98;101845.88;5073754;28;20044;-78
2020/12/18 02:37:35;;;;;;;30.05;15.98;;;9.20;99.90;;;9.21;88.18;101842.16;5074982;28;20052;-77
2020/12/18 02:40:04;;;;;;;26.95;15.82;;;9.20;99.90;;;9.20;88.44;101850.03;5073516;28;20135;-77
2020/12/18 02:42:51;;;;;;;30.83;16.13;;;9.20;99.90;;;9.32;88.31;101845.84;5074736;28;20064;-77
2020/12/18 02:45:20;;;;;;;27.08;15.55;;;9.20;99.90;;;9.20;88.82;101850.03;5073545;28;20097;-76
2020/12/18 02:48:17;;;;;;;28.10;15.93;;;9.20;99.90;;;9.33;88.13;101852.03;5070320;28;20490;-77
2020/12/18 02:50:54;;;;;;;31.48;16.38;;;9.20;99.90;;;9.36;88.41;101867.91;5073423;28;20075;-77
2020/12/18 02:53:22;;;;;;;23.95;15.02;;;9.30;99.90;;;9.35;88.30;101843.25;5073241;28;20094;-77
2020/12/18 02:56:27;;;;;;;31.00;16.30;;;9.30;99.90;;;9.30;88.35;101837.03;5073355;28;20045;-76
2020/12/18 02:59:34;;;;;;;28.63;15.70;;;9.30;99.90;;;9.44;87.81;101835.50;5064542;28;20444;-77
2020/12/18 03:02:01;;;;;;;31.40;15.70;;;9.30;99.90;;;9.20;88.38;101818.34;5073174;28;20063;-77
2020/12/18 03:04:29;;;;;;;30.60;15.30;;;9.30;99.90;;;9.33;88.36;101847.63;5074525;28;20117;-77
2020/12/18 03:07:04;;;;;;;28.02;15.32;;;9.30;99.90;;;9.42;88.03;101842.50;5073419;28;20137;-77
2020/12/18 03:09:33;;;;;;;23.02;14.30;;;9.30;99.90;;;9.42;87.99;101838.97;5073092;28;20072;-77
2020/12/18 03:12:01;;;;;;;35.90;16.23;;;9.30;99.90;;;9.26;87.83;101807.91;5072985;28;20044;-77
2020/12/18 03:14:28;;;;;;;28.50;14.57;;;9.40;99.90;;;9.42;87.65;101847.78;5073961;28;20563;-77
2020/12/18 03:17:11;;;;;;;31.92;15.18;;;9.40;99.90;;;9.26;88.31;101818.47;5072966;28;20052;-77
2020/12/18 03:19:56;;;;;;;34.42;15.30;;;9.40;99.90;;;9.23;88.47;101835.16;5072368;28;20056;-78
2020/12/18 03:22:51;;;;;;;31.10;15.38;;;9.20;99.90;;;9.32;88.75;101837.94;5072905;28;20056;-76
2020/12/18 03:25:37;;;;;;;25.85;15.05;;;9.30;99.90;;;9.41;88.31;101830.16;5072622;28;20451;-78
2020/12/18 03:28:10;;;;;;;25.90;13.77;;;9.30;99.90;;;9.28;88.05;101811.44;5072787;28;20131;-77
2020/12/18 03:30:39;;;;;;;24.95;14.88;;;9.40;99.90;;;9.44;87.80;101829.31;5072630;28;20105;-76
2020/12/18 03:33:07;;;;;;;30.70;15.55;;;9.40;99.90;;;9.39;88.41;101837.16;5073846;28;20037;-77
2020/12/18 03:35:36;;;;;;;34.00;14.75;;;9.40;99.90;;;9.31;88.46;101830.00;5072300;28;20051;-77
2020/12/18 03:38:04;;;;;;;27.63;14.90;;;9.30;99.90;;;9.40;88.64;101831.03;5072570;28;20060;-77
2020/12/18 03:40:32;;;;;;;24.50;13.32;;;9.30;99.90;;;9.39;88.60;101828.38;5072384;28;20048;-77
2020/12/18 03:43:13;;;;;;;23.83;14.43;;;9.30;99.90;;;9.40;88.65;101824.84;5072268;28;20105;-77
2020/12/18 03:45:41;;;;;;;31.35;14.32;;;9.40;99.90;;;9.35;89.15;101822.13;5072077;28;20094;-77
2020/12/18 03:48:32;;;;;;;27.50;14.15;;;9.30;99.90;;;9.34;89.36;101823.00;5073151;28;20084;-78
2020/12/18 03:51:26;;;;;;;29.77;15.05;;;9.30;99.90;;;9.30;89.51;101820.28;5064581;28;20545;-77
2020/12/18 03:53:54;;;;;;;27.45;15.32;;;9.30;99.90;;;9.42;89.53;101826.66;5072091;28;20456;-77
2020/12/18 03:56:47;;;;;;;30.25;14.90;;;9.40;99.90;;;9.26;89.04;101792.97;5072261;28;20044;-77
2020/12/18 03:59:21;;;;;;;34.50;15.60;;;9.40;99.90;;;9.24;88.84;101767.38;5072237;28;20485;-78
2020/12/18 04:02:18;;;;;;;28.92;14.32;;;9.40;99.90;;;9.36;89.00;101792.25;5064161;28;20064;-76
2020/12/18 04:04:46;;;;;;;26.52;15.05;;;9.40;99.90;;;9.56;89.15;101809.25;5072027;28;20041;-77
2020/12/18 04:07:15;;;;;;;27.88;15.32;;;9.40;99.90;;;9.60;88.65;101816.34;5071707;28;20444;-77
2020/12/18 04:09:44;;;;;;;29.13;14.68;;;9.50;99.90;;;9.22;88.61;101750.63;5071628;28;20045;-77
2020/12/18 04:12:15;;;;;;;25.20;15.13;;;9.50;99.90;;;9.41;89.18;101829.25;5071481;28;20042;-77
2020/12/18 04:14:55;;;;;;;31.98;15.15;;;9.40;99.90;;;9.46;89.23;101841.69;5071691;28;20123;-77
2020/12/18 04:17:29;;;;;;;28.38;15.13;;;9.40;99.90;;;9.17;89.29;101776.09;5071807;28;20052;-77
2020/12/18 04:20:03;;;;;;;28.77;14.60;;;9.30;99.90;;;9.44;89.26;101811.72;5071694;28;20072;-77
2020/12/18 04:22:33;;;;;;;23.95;14.63;;;9.40;99.90;;;9.26;89.11;101757.75;5071644;28;20057;-77
2020/12/18 04:25:20;;;;;;;30.58;14.93;;;9.40;99.90;;;9.44;89.15;101797.63;5061216;28;20516;-77
2020/12/18 04:27:49;;;;;;;30.02;15.20;;;9.40;99.90;;;9.55;88.96;101798.66;5071275;28;20143;-77
2020/12/18 04:30:17;;;;;;;31.98;15.32;;;9.50;99.90;;;9.60;88.15;101783.81;5071419;28;20064;-76
2020/12/18 04:32:47;;;;;;;28.88;14.55;;;9.50;99.90;;;9.39;87.83;101757.94;5070637;28;20098;-77
2020/12/18 04:35:16;;;;;;;31.63;15.05;;;9.50;99.90;;;9.54;88.06;101794.28;5072680;28;20453;-77
2020/12/18 04:38:15;;;;;;;;;;;9.50;99.90;;;9.43;88.12;101775.63;5072443;28;20553;-77
2020/12/18 04:40:54;;;;;;;26.58;13.63;;;9.40;99.90;;;9.58;88.27;101770.53;5105051;28;19921;-77
2020/12/18 04:43:29;;;;;;;26.55;14.55;;;9.50;99.90;;;9.61;87.79;101769.72;5071354;28;20382;-77
2020/12/18 04:46:06;;;;;;;27.60;13.88;;;9.50;99.90;;;9.47;88.01;101764.22;5071281;28;20045;-77
2020/12/18 04:48:37;;;;;;;24.60;14.93;;;9.50;99.90;;;8.70;88.06;101673.34;5071359;28;20167;-77
2020/12/18 04:51:17;;;;;;;28.77;14.95;;;9.40;99.90;;;9.32;88.49;101761.38;5071212;28;20151;-77
2020/12/18 04:53:52;;;;;;;27.40;15.45;;;9.30;99.90;;;9.08;89.11;101745.16;5071078;28;20052;-77
2020/12/18 04:56:29;;;;;;;29.92;14.98;;;9.30;99.90;;;9.39;89.12;101765.00;5070948;28;20106;-78
2020/12/18 04:59:06;;;;;;;29.70;15.57;;;9.30;99.90;;;9.14;88.73;101734.69;5071205;28;20052;-77
2020/12/18 05:01:54;;;;;;;30.73;15.73;;;9.30;99.90;;;9.48;88.37;101773.94;5071061;28;20040;-77
2020/12/18 05:04:23;;;;;;;26.35;15.02;;;9.40;99.90;;;8.84;88.39;101710.47;5070826;28;20410;-77
2020/12/18 05:07:03;;;;;;;24.77;15.18;;;9.40;99.90;;;9.46;88.34;101758.94;5070960;28;20489;-77
2020/12/18 05:09:44;;;;;;;23.65;13.45;;;9.40;99.90;;;9.39;87.85;101734.19;5071071;28;20402;-77
2020/12/18 05:12:14;;;;;;;30.88;14.32;;;9.40;99.90;;;9.57;87.91;101763.50;5070894;28;20048;-76
2020/12/18 05:14:45;;;;;;;23.45;13.95;;;9.50;99.90;;;9.44;88.14;101745.72;5070961;28;20053;-76
2020/12/18 05:17:25;;;;;;;25.73;14.00;;;9.40;99.90;;;9.60;87.67;101763.53;5070955;28;20040;-76
2020/12/18 05:19:53;;;;;;;31.88;14.50;;;9.50;99.90;;;9.52;87.69;101756.38;5070816;28;20051;-77
2020/12/18 05:22:54;;;;;;;27.27;14.25;;;9.50;99.90;;;9.48;87.98;101749.28;5072079;28;20398;-77
2020/12/18 05:25:35;;;;;;;25.75;12.90;;;9.50;99.90;;;9.41;87.42;101761.50;5070650;28;20063;-76
2020/12/18 05:28:03;;;;;;;23.73;13.95;;;9.50;99.90;;;9.47;87.85;101793.28;5072203;28;20044;-77
2020/12/18 05:30:33;;;;;;;29.55;15.70;;;9.40;99.90;;;9.23;88.19;101711.09;5071205;28;20055;-77
2020/12/18 05:33:34;;;;;;;23.17;14.23;;;9.40;99.90;;;9.47;88.21;101736.94;5058196;28;20495;-76
2020/12/18 05:36:25;;;;;;;29.45;13.82;;;9.40;99.90;;;9.35;88.65;101735.00;5071859;28;20129;-76
2020/12/18 05:38:56;;;;;;;24.50;12.93;;;9.30;99.90;;;9.30;88.92;101739.34;5070634;28;20760;-77
2020/12/18 05:41:34;;;;;;;26.02;13.88;;;9.30;99.90;;;9.28;88.39;101738.44;5070591;28;20048;-77
2020/12/18 05:44:06;;;;;;;21.63;13.13;;;9.30;99.90;;;9.35;88.56;101732.38;5073909;28;20139;-76
2020/12/18 05:46:52;;;;;;;22.63;12.75;;;9.30;99.90;;;9.27;88.91;101744.56;5075813;28;20421;-77
2020/12/18 05:49:31;;;;;;;28.05;14.50;;;9.30;99.90;;;9.30;88.71;101731.44;5074359;28;20486;-75
2020/12/18 05:52:09;;;;;;;25.25;13.52;;;9.30;99.90;;;9.39;88.51;101746.53;5074861;28;20058;-76
2020/12/18 05:54:56;;;;;;;24.13;13.35;;;9.40;99.90;;;9.43;88.01;101751.84;5074404;28;20087;-76
2020/12/18 05:57:35;;;;;;;26.48;14.18;;;9.40;99.90;;;9.43;87.79;101743.03;5074455;28;20078;-76
2020/12/18 06:00:08;;;;;;;;;;;9.40;99.90;;;9.57;87.42;101752.94;5074923;28;20098;-77
2020/12/18 06:03:11;;;;;;;27.17;15.10;;;9.50;99.90;;;9.35;87.84;101729.72;5108251;28;20418;-77
2020/12/18 06:05:47;;;;;;;22.10;14.93;;;9.40;99.90;;;9.50;87.98;101745.81;5074334;28;20563;-76
2020/12/18 06:08:26;;;;;;;31.85;16.20;;;9.40;99.90;;;9.52;88.38;101753.75;5074390;28;20094;-77
2020/12/18 06:11:00;;;;;;;27.02;16.80;;;9.40;99.90;;;9.30;88.19;101710.31;5074096;28;20078;-77
2020/12/18 06:13:48;;;;;;;31.17;17.55;;;9.40;99.90;;;9.51;88.26;101742.28;5074073;28;20045;-77
2020/12/18 06:16:30;;;;;;;34.33;19.70;;;9.40;99.90;;;9.49;88.56;101751.94;5075326;28;20482;-78
2020/12/18 06:19:24;;;;;;;34.35;20.90;;;9.40;99.90;;;9.45;88.44;101765.06;5073797;28;20052;-77
2020/12/18 06:21:57;;;;;;;34.10;20.83;;;9.40;99.90;;;9.36;88.50;101755.28;5074001;28;20114;-78
2020/12/18 06:24:55;;;;;;;31.45;20.38;;;9.40;99.90;;;9.48;89.08;101758.09;5073944;28;20090;-79
2020/12/18 06:28:00;;;;;;;29.15;19.90;;;9.40;99.90;;;9.42;89.18;101754.47;5054906;28;20061;-79
2020/12/18 06:30:39;;;;;;;32.28;20.50;;;9.40;99.90;;;9.45;89.42;101752.75;5073795;28;20060;-77
2020/12/18 06:33:49;;;;;;;40.75;21.23;;;9.40;99.90;;;9.40;89.34;101754.47;5074995;28;20097;-77
2020/12/18 06:36:57;;;;;;;40.08;23.23;;;9.30;99.90;;;9.40;89.40;101757.09;5075074;28;20052;-77
2020/12/18 06:39:47;;;;;;;33.80;21.88;;;9.30;99.90;;;9.52;89.12;101754.66;5064475;28;20056;-77
2020/12/18 06:42:56;;;;;;;32.60;21.73;;;9.40;99.90;;;8.78;88.68;101623.34;5052288;28;20139;-77
2020/12/18 06:45:42;;;;;;;41.40;26.08;;;9.40;99.90;;;9.45;89.01;101739.56;5052394;28;20215;-77
2020/12/18 06:48:50;;;;;;;34.63;24.13;;;9.40;99.90;;;9.49;88.92;101725.53;5032287;28;20086;-77
2020/12/18 06:51:47;;;;;;;36.72;25.60;;;9.50;99.90;;;9.68;88.48;101750.44;5074577;28;20060;-77
2020/12/18 06:54:24;;;;;;;40.55;26.05;;;9.50;99.90;;;9.72;88.34;101757.53;5072795;28;20449;-77
2020/12/18 06:57:20;;;;;;;37.28;25.33;;;9.60;99.90;;;9.68;88.07;101739.84;5073309;28;20052;-76
2020/12/18 06:59:50;;;;;;;43.30;26.75;;;9.60;99.90;;;9.64;88.38;101752.13;5073237;28;20143;-78
2020/12/18 07:02:36;;;;;;;42.00;27.38;;;9.60;99.90;;;9.61;88.76;101753.88;5074182;28;20555;-77
2020/12/18 07:05:04;;;;;;;40.17;28.08;;;9.50;99.90;;;9.67;88.54;101730.19;5074343;28;20495;-78
2020/12/18 07:07:41;;;;;;;39.00;26.80;;;9.60;99.90;;;9.71;88.02;101730.25;5074396;28;20041;-77
2020/12/18 07:10:09;;;;;;;40.67;26.40;;;9.70;99.90;;;9.90;87.91;101755.13;5074044;28;20406;-77
2020/12/18 07:12:37;;;;;;;41.15;27.73;;;9.70;99.90;;;9.67;87.87;101760.13;5074269;28;20060;-77
2020/12/18 07:15:06;;;;;;;40.35;26.73;;;9.80;99.90;;;9.87;87.98;101773.59;5074109;28;20037;-76
2020/12/18 07:17:33;;;;;;;45.67;27.52;;;9.70;99.90;;;9.82;87.94;101788.50;5072905;28;20041;-77
2020/12/18 07:20:01;;;;;;;42.13;26.38;;;9.70;99.90;;;9.68;87.90;101759.25;5072992;28;20397;-77
2020/12/18 07:22:29;;;;;;;39.55;26.45;;;9.70;99.90;;;9.83;88.00;101791.16;5074091;28;20467;-77
2020/12/18 07:25:12;;;;;;;44.03;26.92;;;9.70;99.90;;;9.81;87.99;101789.38;5074492;28;20052;-77
2020/12/18 07:27:40;;;;;;;36.28;26.23;;;9.70;99.90;;;9.84;88.15;101797.31;5074191;28;20067;-76
2020/12/18 07:30:10;;;;;;;41.25;27.27;;;9.70;99.90;;;9.76;87.83;101785.75;5074267;28;20040;-78
2020/12/18 07:32:38;;;;;;;43.85;27.05;;;9.70;99.90;;;9.72;88.39;101799.78;5073952;28;20037;-78
2020/12/18 07:35:08;;;;;;;42.75;27.23;;;9.60;99.90;;;9.79;88.24;101797.25;5073669;28;20072;-77
2020/12/18 07:37:36;;;;;;;43.70;27.90;;;9.60;99.90;;;9.68;88.10;101783.03;5073754;28;20056;-77
2020/12/18 07:40:05;;;;;;;44.20;27.58;;;9.60;99.90;;;9.54;88.46;101752.00;5073207;28;20444;-77
2020/12/18 07:42:33;;;;;;;39.17;26.73;;;9.60;99.90;;;9.84;88.17;101803.50;5073213;28;20052;-77
2020/12/18 07:45:07;;;;;;;41.72;26.00;;;9.70;99.90;;;7.84;87.81;101479.50;5073759;28;20048;-75
2020/12/18 07:47:36;;;;;;;37.90;25.52;;;9.70;99.90;;;9.60;88.23;101752.09;5073014;28;20509;-76
2020/12/18 07:50:08;;;;;;;42.92;26.27;;;9.70;99.90;;;9.83;88.00;101792.94;5073409;28;20110;-77
2020/12/18 07:52:36;;;;;;;37.65;25.60;;;9.70;99.90;;;9.86;87.92;101782.38;5073457;28;20047;-77
2020/12/18 07:55:04;;;;;;;39.72;25.45;;;9.70;99.90;;;9.83;87.92;101759.44;5073269;28;20079;-75
2020/12/18 07:57:33;;;;;;;38.20;24.20;;;9.70;99.90;;;9.89;87.47;101767.44;5073143;28;20033;-76
2020/12/18 08:00:08;;;;;;;43.05;23.77;;;9.80;99.90;;;9.85;87.45;101775.34;5073040;28;20131;-81
2020/12/18 08:02:39;;;;;;;34.90;22.63;;;9.80;99.90;;;9.88;87.47;101762.16;5073291;28;20059;-80
2020/12/18 08:05:08;;;;;;;37.10;22.95;;;9.80;99.90;;;10.03;87.40;101778.19;5072812;28;20041;-79
2020/12/18 08:07:35;;;;;;;32.33;22.45;;;9.90;99.90;;;10.06;87.34;101785.28;5072055;28;20129;-81
2020/12/18 08:10:04;;;;;;;36.03;22.42;;;9.90;99.90;;;10.03;87.24;101780.84;5073076;28;20051;-76
2020/12/18 08:12:31;;;;;;;37.63;21.05;;;9.90;99.90;;;9.98;86.88;101794.00;5072807;28;20528;-77
2020/12/18 08:15:10;;;;;;;34.35;20.13;;;9.90;99.90;;;9.98;87.56;101783.44;5072744;28;20041;-77
2020/12/18 08:17:37;;;;;;;34.20;20.55;;;9.80;99.90;;;9.97;87.35;101768.44;5072892;28;20517;-77
2020/12/18 08:20:08;;;;;;;33.17;20.23;;;9.80;99.90;;;9.87;87.66;101795.59;5072933;28;20041;-76
2020/12/18 08:22:43;;;;;;;36.42;19.45;;;9.80;99.90;;;9.96;87.68;101785.19;5073181;28;20492;-76
2020/12/18 08:25:12;;;;;;;32.15;19.27;;;9.80;99.90;;;9.39;87.37;101707.78;5072898;28;20059;-76
2020/12/18 08:27:48;;;;;;;29.08;18.85;;;9.80;99.90;;;9.99;87.84;101801.06;5073037;28;20049;-78
2020/12/18 08:30:18;;;;;;;26.52;17.23;;;9.90;99.90;;;10.06;87.31;101801.13;5073042;28;20091;-80
2020/12/18 08:32:53;;;;;;;28.63;17.10;;;10.00;99.90;;;9.84;87.23;101757.69;5071391;28;20036;-79
2020/12/18 08:35:23;;;;;;;32.35;17.90;;;9.90;99.90;;;10.04;87.13;101801.13;5072626;28;20097;-78
2020/12/18 08:37:51;;;;;;;26.33;17.52;;;9.90;99.90;;;9.95;87.22;101756.97;5072663;28;20051;-78
2020/12/18 08:40:24;;;;;;;29.73;17.60;;;10.00;99.90;;;10.31;86.63;101782.09;5072580;28;20098;-79
2020/12/18 08:42:59;;;;;;;29.65;16.20;;;10.20;99.90;;;10.16;86.69;101795.13;5072869;28;20036;-77
2020/12/18 08:45:28;;;;;;;23.23;15.20;;;10.10;99.90;;;10.28;86.22;101782.94;5072723;28;20040;-79
2020/12/18 08:47:56;;;;;;;25.92;16.05;;;10.20;99.90;;;10.22;85.67;101750.28;5072269;28;20461;-77
2020/12/18 08:50:24;;;;;;;26.13;15.35;;;10.30;99.90;;;10.48;85.20;101786.69;5072363;28;20040;-77
2020/12/18 08:52:52;;;;;;;23.25;15.18;;;10.40;99.90;;;10.45;84.71;101759.34;5072482;28;20040;-80
2020/12/18 08:55:22;;;;;;;21.38;13.88;;;10.40;99.90;;;10.47;84.04;101736.44;5071974;28;20052;-78
2020/12/18 08:57:49;;;;;;;25.00;14.90;;;10.50;99.90;;;10.69;83.82;101775.44;5072399;28;20036;-79
2020/12/18 09:00:18;;;;;;;20.63;14.05;;;10.60;99.90;;;10.71;83.60;101769.28;5072267;28;20101;-75
2020/12/18 09:02:56;;;;;;;23.50;13.02;;;10.70;99.90;;;10.83;83.31;101773.81;5072296;28;20044;-81
2020/12/18 09:05:29;;;;;;;21.33;12.75;;;10.70;99.90;;;10.79;83.51;101782.59;5072465;28;20087;-76
2020/12/18 09:08:01;;;;;;;19.15;12.57;;;10.70;99.90;;;10.78;83.57;101776.41;5104787;28;20056;-77
2020/12/18 09:10:40;;;;;;;24.90;12.95;;;10.70;99.90;;;10.75;83.40;101789.63;5072340;28;20071;-71
2020/12/18 09:13:15;;;;;;;22.65;12.70;;;10.70;99.90;;;10.66;83.99;101772.78;5072284;28;20501;-73
2020/12/18 09:15:45;;;;;;;19.40;12.90;;;10.60;99.90;;;10.79;83.64;101785.25;5071921;28;20477;-78
2020/12/18 09:18:14;;;;;;;19.53;12.20;;;10.70;99.90;;;10.72;83.90;101778.13;5071607;28;20210;-80
2020/12/18 09:20:44;;;;;;;20.88;12.50;;;10.60;99.90;;;10.78;83.98;101773.75;5072265;28;20789;-75
2020/12/18 09:23:14;;;;;;;26.02;12.60;;;10.70;99.90;;;10.83;84.16;101776.47;5071942;28;20098;-82
2020/12/18 09:25:44;;;;;;;26.38;12.55;;;10.70;99.90;;;10.90;83.93;101755.34;5072286;28;20044;-83
2020/12/18 09:28:17;;;;;;;19.50;12.07;;;10.80;99.90;;;11.04;83.42;101766.06;5072093;28;20049;-79
2020/12/18 09:30:50;;;;;;;25.67;12.50;;;10.90;99.90;;;11.11;82.84;101728.13;5072068;28;20051;-82
2020/12/18 09:33:32;;;;;;;22.13;11.65;;;11.10;99.90;;;11.41;82.04;101772.50;5072095;28;20048;-83
2020/12/18 09:36:08;;;;;;;20.27;12.00;;;11.40;99.90;;;11.59;80.80;101765.53;5072108;28;20048;-74
2020/12/18 09:38:38;;;;;;;17.17;11.43;;;11.60;99.90;;;11.99;80.63;101787.00;5071836;28;20037;-80
2020/12/18 09:41:09;;;;;;;18.88;10.88;;;11.80;99.90;;;12.47;78.84;101808.38;5071816;28;20041;-79
2020/12/18 09:43:37;;;;;;;15.73;9.90;;;12.30;99.90;;;12.72;77.48;101807.56;5071793;28;20043;-78
2020/12/18 09:46:11;;;;;;;16.17;9.80;;;12.60;99.90;;;12.97;76.27;101806.72;5071717;28;20071;-77
2020/12/18 09:48:40;;;;;;;16.13;9.05;;;12.90;99.90;;;12.53;75.08;101707.56;5072043;28;20048;-75
2020/12/18 09:51:09;;;;;;;21.02;10.07;;;13.10;99.90;;;13.33;74.62;101789.94;5071630;28;20119;-80
2020/12/18 09:53:36;;;;;;;19.13;9.48;;;13.20;99.90;;;13.46;73.98;101789.03;5071452;28;20040;-73
2020/12/18 09:56:07;;;;;;;14.85;9.40;;;13.30;99.90;;;13.61;72.91;101765.06;5071690;28;20040;-83
2020/12/18 09:58:35;;;;;;;15.63;8.57;;;13.60;99.90;;;13.82;72.05;101788.94;5071775;28;20131;-71
2020/12/18 10:01:02;;;;;;;15.85;8.80;;;13.70;99.90;;;13.81;72.16;101804.91;5072022;28;20052;-71
2020/12/18 10:03:30;;;;;;;16.30;9.13;;;13.70;99.90;;;13.70;72.44;101796.06;5071712;28;20040;-70
2020/12/18 10:05:58;;;;;;;15.05;8.60;;;13.60;99.90;;;13.59;71.74;101757.09;5070497;28;20056;-72
2020/12/18 10:08:32;;;;;;;14.32;8.82;;;13.70;99.90;;;13.47;72.46;101796.13;5071834;28;20062;-72
2020/12/18 10:11:00;;;;;;;19.67;8.40;;;13.40;99.90;;;13.47;72.42;101794.34;5071495;28;20045;-72
2020/12/18 10:13:27;;;;;;;18.27;8.30;;;13.40;99.90;;;13.31;72.71;101781.97;5071705;28;20455;-71
2020/12/18 10:15:55;;;;;;;14.98;8.07;;;13.30;99.90;;;13.13;73.44;101775.78;5071650;28;20079;-72
2020/12/18 10:18:22;;;;;;;17.50;8.73;;;13.10;99.90;;;12.92;73.41;101795.22;5071644;28;20452;-73
2020/12/18 10:20:50;;;;;;;19.40;8.48;;;12.90;99.90;;;12.62;75.13;101766.84;5071364;28;20084;-72
2020/12/18 10:23:17;;;;;;;16.23;8.88;;;12.60;99.90;;;13.08;74.73;101775.78;5071721;28;20040;-72
2020/12/18 10:25:57;;;;;;;19.70;7.32;;;12.80;99.90;;;13.44;73.37;101775.75;5071489;28;20052;-76
2020/12/18 10:28:25;;;;;;;13.52;7.85;;;13.20;99.90;;;13.68;72.90;101750.00;5070256;28;20379;-77
2020/12/18 10:30:54;;;;;;;14.65;7.55;;;13.50;99.90;;;13.85;72.35;101769.44;5073809;28;20170;-76
2020/12/18 10:33:21;;;;;;;12.18;7.30;;;13.60;99.90;;;13.72;72.26;101762.41;5074914;28;20045;-77
2020/12/18 10:35:49;;;;;;;12.85;7.72;;;13.60;99.90;;;13.53;71.81;101740.28;5074816;28;20124;-74
2020/12/18 10:38:16;;;;;;;19.48;8.60;;;13.60;99.90;;;13.57;72.66;101753.56;5073482;28;20490;-77
2020/12/18 10:40:44;;;;;;;15.68;7.97;;;13.50;99.90;;;13.60;72.86;101742.03;5074614;28;20085;-77